createdAt,value
2023-02-01T00:00:27.930Z,98917.00
2023-02-01T00:03:15.860Z,98912.00
2023-02-01T00:06:03.845Z,98915.00
2023-02-01T00:08:55.642Z,98923.00
2023-02-01T00:11:43.163Z,98912.00
2023-02-01T00:14:30.964Z,98906.00
2023-02-01T00:17:18.481Z,98907.00
2023-02-01T00:20:07.115Z,98901.00
2023-02-01T00:22:54.554Z,98896.00
2023-02-01T00:25:42.119Z,98896.00
2023-02-01T00:28:29.670Z,98890.00
2023-02-01T00:31:17.362Z,98897.00
2023-02-01T00:34:05.647Z,98897.00
2023-02-01T00:36:53.224Z,98892.00
2023-02-01T00:39:40.774Z,98892.00
2023-02-01T00:42:28.309Z,98898.00
2023-02-01T00:45:15.934Z,98888.00
2023-02-01T00:48:03.455Z,98899.00
2023-02-01T00:50:51.059Z,98899.00
2023-02-01T00:53:38.907Z,98893.00
2023-02-01T00:56:28.560Z,98909.00
2023-02-01T00:59:16.344Z,98893.00
2023-02-01T01:02:03.953Z,98904.00
2023-02-01T01:04:51.415Z,98901.00
2023-02-01T01:07:38.839Z,98892.00
2023-02-01T01:10:26.328Z,98886.00
2023-02-01T01:13:13.735Z,98881.00
2023-02-01T01:16:03.940Z,98883.00
2023-02-01T01:18:52.240Z,98883.00
2023-02-01T01:21:39.848Z,98882.00
2023-02-01T01:24:27.333Z,98875.00
2023-02-01T01:27:15.400Z,98878.00
2023-02-01T01:30:02.907Z,98878.00
2023-02-01T01:32:50.483Z,98871.00
2023-02-01T01:35:38.139Z,98865.00
2023-02-01T01:38:25.745Z,98868.00
2023-02-01T01:41:24.004Z,98875.00
2023-02-01T01:45:23.998Z,98872.00
2023-02-01T01:48:29.233Z,98869.00
2023-02-01T01:51:22.199Z,98861.00
2023-02-01T01:54:26.019Z,98863.00
2023-02-01T01:57:22.026Z,98862.00
2023-02-01T02:00:17.973Z,98855.00
2023-02-01T02:03:16.379Z,98870.00
2023-02-01T02:06:14.758Z,98864.00
2023-02-01T02:09:02.388Z,98858.00
2023-02-01T02:11:50.089Z,98859.00
2023-02-01T02:14:38.588Z,98865.00
2023-02-01T02:17:44.500Z,98858.00
2023-02-01T02:20:41.184Z,98855.00
2023-02-01T02:23:49.849Z,98853.00
2023-02-01T02:27:03.032Z,98848.00
2023-02-01T02:30:44.605Z,98856.00
2023-02-01T02:33:53.516Z,98842.00
2023-02-01T02:37:19.572Z,98836.00
2023-02-01T02:40:26.573Z,98840.00
2023-02-01T02:43:50.788Z,98827.00
2023-02-01T02:47:05.093Z,98838.00
2023-02-01T02:50:18.068Z,98839.00
2023-02-01T02:53:35.954Z,98829.00
2023-02-01T02:56:44.867Z,98827.00
2023-02-01T02:59:53.775Z,98833.00
2023-02-01T03:03:00.528Z,98828.00
2023-02-01T03:05:51.640Z,98828.00
2023-02-01T03:08:39.161Z,98834.00
2023-02-01T03:11:50.222Z,98832.00
2023-02-01T03:14:41.864Z,98825.00
2023-02-01T03:17:39.944Z,98823.00
2023-02-01T03:20:28.849Z,98825.00
2023-02-01T03:23:21.432Z,98826.00
2023-02-01T03:26:16.342Z,98813.00
2023-02-01T03:29:18.834Z,98814.00
2023-02-01T03:32:07.139Z,98816.00
2023-02-01T03:34:55.586Z,98800.00
2023-02-01T03:37:43.383Z,98795.00
2023-02-01T03:40:38.684Z,98801.00
2023-02-01T03:43:30.612Z,98798.00
2023-02-01T03:46:28.842Z,98794.00
2023-02-01T03:49:30.514Z,98784.00
2023-02-01T03:52:35.796Z,98785.00
2023-02-01T03:55:26.384Z,98793.00
2023-02-01T03:58:21.560Z,98788.00
2023-02-01T04:01:09.087Z,98783.00
2023-02-01T04:03:58.965Z,98785.00
2023-02-01T04:06:50.622Z,98793.00
2023-02-01T04:09:38.071Z,98780.00
2023-02-01T04:12:25.549Z,98774.00
2023-02-01T04:15:13.112Z,98782.00
2023-02-01T04:18:00.578Z,98778.00
2023-02-01T04:20:48.089Z,98782.00
2023-02-01T04:23:37.292Z,98772.00
2023-02-01T04:26:25.515Z,98775.00
2023-02-01T04:29:13.140Z,98765.00
2023-02-01T04:32:00.963Z,98761.00
2023-02-01T04:34:48.398Z,98761.00
2023-02-01T04:37:36.816Z,98763.00
2023-02-01T04:40:24.654Z,98755.00
2023-02-01T04:43:12.485Z,98746.00
2023-02-01T04:45:59.984Z,98747.00
2023-02-01T04:48:47.507Z,98733.00
2023-02-01T04:51:35.023Z,98737.00
2023-02-01T04:54:22.545Z,98749.00
2023-02-01T04:57:10.028Z,98744.00
2023-02-01T04:59:57.549Z,98733.00
2023-02-01T05:02:44.988Z,98733.00
2023-02-01T05:05:32.566Z,98724.00
2023-02-01T05:08:20.111Z,98732.00
2023-02-01T05:11:07.883Z,98730.00
2023-02-01T05:13:55.387Z,98737.00
2023-02-01T05:16:42.951Z,98730.00
2023-02-01T05:19:30.456Z,98735.00
2023-02-01T05:22:18.030Z,98729.00
2023-02-01T05:25:08.215Z,98731.00
2023-02-01T05:27:56.046Z,98718.00
2023-02-01T05:30:43.656Z,98732.00
2023-02-01T05:33:31.184Z,98737.00
2023-02-01T05:36:19.166Z,98735.00
2023-02-01T05:39:06.647Z,98734.00
2023-02-01T05:41:54.115Z,98738.00
2023-02-01T05:44:41.969Z,98732.00
2023-02-01T05:47:29.602Z,98732.00
2023-02-01T05:50:18.140Z,98732.00
2023-02-01T05:53:06.195Z,98721.00
2023-02-01T05:55:53.695Z,98723.00
2023-02-01T05:58:41.149Z,98728.00
2023-02-01T06:01:28.657Z,98722.00
2023-02-01T06:04:16.143Z,98711.00
2023-02-01T06:07:04.402Z,98704.00
2023-02-01T06:09:51.862Z,98713.00
2023-02-01T06:12:39.394Z,98710.00
2023-02-01T06:15:26.860Z,98706.00
2023-02-01T06:18:15.671Z,98707.00
2023-02-01T06:21:04.033Z,98712.00
2023-02-01T06:23:53.628Z,98710.00
2023-02-01T06:26:41.794Z,98714.00
2023-02-01T06:29:29.314Z,98722.00
2023-02-01T06:32:18.460Z,98727.00
2023-02-01T06:35:06.979Z,98730.00
2023-02-01T06:37:54.543Z,98749.00
2023-02-01T06:40:44.850Z,98752.00
2023-02-01T06:43:36.170Z,98745.00
2023-02-01T06:46:23.748Z,98734.00
2023-02-01T06:49:11.340Z,98730.00
2023-02-01T06:52:01.344Z,98728.00
2023-02-01T06:54:48.923Z,98746.00
2023-02-01T06:57:36.830Z,98738.00
2023-02-01T07:00:25.333Z,98741.00
2023-02-01T07:03:13.119Z,98735.00
2023-02-01T07:06:00.989Z,98733.00
2023-02-01T07:08:50.189Z,98737.00
2023-02-01T07:11:40.598Z,98738.00
2023-02-01T07:14:28.081Z,98741.00
2023-02-01T07:17:15.585Z,98740.00
2023-02-01T07:20:03.409Z,98737.00
2023-02-01T07:22:59.485Z,98733.00
2023-02-01T07:25:47.395Z,98739.00
2023-02-01T07:28:37.350Z,98749.00
2023-02-01T07:31:27.545Z,98728.00
2023-02-01T07:34:15.201Z,98738.00
2023-02-01T07:37:02.810Z,98747.00
2023-02-01T07:39:50.822Z,98747.00
2023-02-01T07:42:38.401Z,98740.00
2023-02-01T07:45:26.000Z,98730.00
2023-02-01T07:48:13.787Z,98729.00
2023-02-01T07:51:09.534Z,98708.00
2023-02-01T07:53:57.165Z,98712.00
2023-02-01T07:56:44.636Z,98724.00
2023-02-01T07:59:32.110Z,98728.00
2023-02-01T08:02:19.759Z,98721.00
2023-02-01T08:05:08.264Z,98721.00
2023-02-01T08:07:55.891Z,98712.00
2023-02-01T08:10:43.490Z,98715.00
2023-02-01T08:13:31.689Z,98710.00
2023-02-01T08:16:21.161Z,98705.00
2023-02-01T08:19:08.757Z,98715.00
2023-02-01T08:21:56.425Z,98706.00
2023-02-01T08:24:44.099Z,98701.00
2023-02-01T08:27:35.039Z,98699.00
2023-02-01T08:30:23.490Z,98686.00
2023-02-01T08:33:12.171Z,98681.00
2023-02-01T08:36:03.722Z,98676.00
2023-02-01T08:38:51.656Z,98670.00
2023-02-01T08:41:41.280Z,98680.00
2023-02-01T08:44:28.756Z,98676.00
2023-02-01T08:47:16.303Z,98674.00
2023-02-01T08:50:04.431Z,98673.00
2023-02-01T08:52:52.516Z,98679.00
2023-02-01T08:55:39.957Z,98683.00
2023-02-01T08:58:27.735Z,98687.00
2023-02-01T09:01:18.726Z,98682.00
2023-02-01T09:04:06.440Z,98680.00
2023-02-01T09:06:56.642Z,98678.00
2023-02-01T09:09:45.709Z,98692.00
2023-02-01T09:12:36.062Z,98675.00
2023-02-01T09:15:23.528Z,98671.00
2023-02-01T09:18:11.050Z,98687.00
2023-02-01T09:20:58.604Z,98685.00
2023-02-01T09:23:46.359Z,98697.00
2023-02-01T09:26:34.161Z,98700.00
2023-02-01T09:29:21.677Z,98693.00
2023-02-01T09:32:09.372Z,98697.00
2023-02-01T09:34:56.892Z,98697.00
2023-02-01T09:37:44.400Z,98695.00
2023-02-01T09:40:34.330Z,98700.00
2023-02-01T09:43:47.087Z,98692.00
2023-02-01T09:46:36.297Z,98682.00
2023-02-01T09:49:32.381Z,98695.00
2023-02-01T09:52:43.404Z,98685.00
2023-02-01T09:55:44.386Z,98691.00
2023-02-01T09:58:45.764Z,98692.00
2023-02-01T10:01:33.550Z,98687.00
2023-02-01T10:04:21.584Z,98679.00
2023-02-01T10:07:45.277Z,98679.00
2023-02-01T10:10:51.540Z,98678.00
2023-02-01T10:13:42.067Z,98672.00
2023-02-01T10:16:59.337Z,98654.00
2023-02-01T10:20:05.710Z,98663.00
2023-02-01T10:23:34.640Z,98664.00
2023-02-01T10:26:26.163Z,98673.00
2023-02-01T10:29:23.310Z,98659.00
2023-02-01T10:32:22.778Z,98664.00
2023-02-01T10:35:22.461Z,98675.00
2023-02-01T10:38:33.073Z,98679.00
2023-02-01T10:41:24.574Z,98664.00
2023-02-01T10:44:25.328Z,98680.00
2023-02-01T10:47:12.834Z,98697.00
2023-02-01T10:50:48.904Z,98700.00
2023-02-01T10:54:12.458Z,98703.00
2023-02-01T10:57:00.647Z,98706.00
2023-02-01T10:59:49.025Z,98726.00
2023-02-01T11:02:37.167Z,98715.00
2023-02-01T11:05:26.700Z,98716.00
2023-02-01T11:08:20.089Z,98715.00
2023-02-01T11:11:07.759Z,98717.00
2023-02-01T11:14:38.339Z,98721.00
2023-02-01T11:17:35.311Z,98736.00
2023-02-01T11:20:43.327Z,98726.00
2023-02-01T11:23:37.446Z,98729.00
2023-02-01T11:26:28.896Z,98729.00
2023-02-01T11:29:23.343Z,98728.00
2023-02-01T11:32:14.829Z,98709.00
2023-02-01T11:35:08.084Z,98699.00
2023-02-01T11:38:01.186Z,98701.00
2023-02-01T11:40:49.193Z,98692.00
2023-02-01T11:43:36.825Z,98687.00
2023-02-01T11:46:31.864Z,98682.00
2023-02-01T11:49:28.830Z,98682.00
2023-02-01T11:52:35.016Z,98673.00
2023-02-01T11:56:15.103Z,98681.00
2023-02-01T11:59:38.847Z,98667.00
2023-02-01T12:02:41.191Z,98652.00
2023-02-01T12:05:43.599Z,98653.00
2023-02-01T12:09:23.051Z,98653.00
2023-02-01T12:12:30.054Z,98640.00
2023-02-01T12:15:27.677Z,98641.00
2023-02-01T12:18:50.964Z,98643.00
2023-02-01T12:21:49.405Z,98636.00
2023-02-01T12:25:23.552Z,98636.00
2023-02-01T12:28:43.842Z,98619.00
2023-02-01T12:32:12.976Z,98609.00
2023-02-01T12:35:25.610Z,98596.00
2023-02-01T12:38:28.931Z,98598.00
2023-02-01T12:41:59.373Z,98604.00
2023-02-01T12:45:12.179Z,98601.00
2023-02-01T12:48:17.700Z,98593.00
2023-02-01T12:51:19.619Z,98586.00
2023-02-01T12:54:31.533Z,98604.00
2023-02-01T12:57:44.721Z,98598.00
2023-02-01T13:00:45.802Z,98578.00
2023-02-01T13:03:56.923Z,98602.00
2023-02-01T13:07:17.755Z,98602.00
2023-02-01T13:10:16.677Z,98603.00
2023-02-01T13:13:41.011Z,98621.00
2023-02-01T13:16:39.837Z,98616.00
2023-02-01T13:19:48.619Z,98618.00
2023-02-01T13:23:05.146Z,98642.00
2023-02-01T13:25:55.097Z,98652.00
2023-02-01T13:28:53.018Z,98660.00
2023-02-01T13:32:11.937Z,98680.00
2023-02-01T13:35:43.313Z,98691.00
2023-02-01T13:39:07.544Z,98682.00
2023-02-01T13:42:03.272Z,98681.00
2023-02-01T13:45:16.813Z,98679.00
2023-02-01T13:48:08.050Z,98676.00
2023-02-01T13:50:59.199Z,98673.00
2023-02-01T13:53:50.180Z,98669.00
2023-02-01T13:56:44.736Z,98677.00
2023-02-01T13:59:41.081Z,98664.00
2023-02-01T14:03:00.514Z,98670.00
2023-02-01T14:05:48.165Z,98675.00
2023-02-01T14:08:43.066Z,98672.00
2023-02-01T14:12:19.620Z,98677.00
2023-02-01T14:15:28.264Z,98672.00
2023-02-01T14:18:38.974Z,98676.00
2023-02-01T14:21:37.357Z,98677.00
2023-02-01T14:24:38.412Z,98674.00
2023-02-01T14:27:36.066Z,98672.00
2023-02-01T14:30:25.682Z,98671.00
2023-02-01T14:33:23.244Z,98661.00
2023-02-01T14:36:16.687Z,98671.00
2023-02-01T14:39:05.428Z,98666.00
2023-02-01T14:42:02.851Z,98666.00
2023-02-01T14:44:59.376Z,98663.00
2023-02-01T14:47:49.174Z,98657.00
2023-02-01T14:50:45.647Z,98662.00
2023-02-01T14:53:37.094Z,98655.00
2023-02-01T14:56:27.718Z,98650.00
2023-02-01T14:59:17.981Z,98664.00
2023-02-01T15:02:26.090Z,98654.00
2023-02-01T15:05:36.745Z,98655.00
2023-02-01T15:08:31.573Z,98657.00
2023-02-01T15:11:19.089Z,98659.00
2023-02-01T15:14:15.628Z,98656.00
2023-02-01T15:17:04.795Z,98644.00
2023-02-01T15:19:58.613Z,98649.00
2023-02-01T15:23:16.925Z,98649.00
2023-02-01T15:26:04.530Z,98645.00
2023-02-01T15:28:52.034Z,98650.00
2023-02-01T15:31:45.712Z,98644.00
2023-02-01T15:34:51.094Z,98640.00
2023-02-01T15:37:38.570Z,98631.00
2023-02-01T15:40:26.585Z,98630.00
2023-02-01T15:43:14.542Z,98636.00
2023-02-01T15:46:08.477Z,98637.00
2023-02-01T15:48:56.699Z,98645.00
2023-02-01T15:51:48.539Z,98650.00
2023-02-01T15:54:49.888Z,98651.00
2023-02-01T15:57:42.044Z,98662.00
2023-02-01T16:00:43.665Z,98665.00
2023-02-01T16:03:46.066Z,98680.00
2023-02-01T16:06:35.503Z,98682.00
2023-02-01T16:09:39.985Z,98677.00
2023-02-01T16:12:39.209Z,98676.00
2023-02-01T16:15:30.547Z,98683.00
2023-02-01T16:18:19.097Z,98672.00
2023-02-01T16:21:09.038Z,98681.00
2023-02-01T16:23:56.575Z,98669.00
2023-02-01T16:26:44.412Z,98681.00
2023-02-01T16:29:32.023Z,98677.00
2023-02-01T16:32:23.065Z,98665.00
2023-02-01T16:35:32.611Z,98677.00
2023-02-01T16:38:24.406Z,98674.00
2023-02-01T16:41:15.647Z,98669.00
2023-02-01T16:44:03.255Z,98661.00
2023-02-01T16:46:50.822Z,98667.00
2023-02-01T16:49:39.826Z,98658.00
2023-02-01T16:52:28.385Z,98664.00
2023-02-01T16:55:18.809Z,98658.00
2023-02-01T16:58:06.356Z,98646.00
2023-02-01T17:00:54.787Z,98655.00
2023-02-01T17:03:44.276Z,98645.00
2023-02-01T17:06:37.880Z,98657.00
2023-02-01T17:09:26.479Z,98652.00
2023-02-01T17:12:31.225Z,98647.00
2023-02-01T17:15:18.780Z,98656.00
2023-02-01T17:18:09.722Z,98642.00
2023-02-01T17:21:01.235Z,98644.00
2023-02-01T17:23:49.139Z,98645.00
2023-02-01T17:26:38.132Z,98634.00
2023-02-01T17:29:26.632Z,98639.00
2023-02-01T17:32:26.441Z,98644.00
2023-02-01T17:35:27.226Z,98650.00
2023-02-01T17:38:15.020Z,98664.00
2023-02-01T17:41:02.590Z,98653.00
2023-02-01T17:43:53.397Z,98651.00
2023-02-01T17:46:40.969Z,98650.00
2023-02-01T17:49:29.187Z,98651.00
2023-02-01T17:52:19.179Z,98664.00
2023-02-01T17:55:24.624Z,98656.00
2023-02-01T17:58:14.924Z,98666.00
2023-02-01T18:01:02.533Z,98661.00
2023-02-01T18:06:57.813Z,98654.00
2023-02-01T18:09:45.460Z,98650.00
2023-02-01T18:12:34.482Z,98665.00
2023-02-01T18:15:25.518Z,98658.00
2023-02-01T18:18:13.224Z,98662.00
2023-02-01T18:21:00.808Z,98656.00
2023-02-01T18:23:49.719Z,98657.00
2023-02-01T18:26:37.216Z,98648.00
2023-02-01T18:29:24.681Z,98650.00
2023-02-01T18:32:12.157Z,98647.00
2023-02-01T18:35:01.420Z,98644.00
2023-02-01T18:37:51.193Z,98637.00
2023-02-01T18:40:54.083Z,98648.00
2023-02-01T18:43:42.297Z,98640.00
2023-02-01T18:46:29.902Z,98635.00
2023-02-01T18:49:18.945Z,98630.00
2023-02-01T18:52:06.774Z,98643.00
2023-02-01T18:55:00.120Z,98633.00
2023-02-01T18:57:48.010Z,98641.00
2023-02-01T19:00:36.520Z,98631.00
2023-02-01T19:03:27.061Z,98621.00
2023-02-01T19:06:15.293Z,98635.00
2023-02-01T19:09:02.835Z,98641.00
2023-02-01T19:11:50.331Z,98633.00
2023-02-01T19:14:37.810Z,98632.00
2023-02-01T19:17:25.533Z,98628.00
2023-02-01T19:20:16.763Z,98623.00
2023-02-01T19:23:04.485Z,98613.00
2023-02-01T19:25:52.346Z,98613.00
2023-02-01T19:28:40.250Z,98604.00
2023-02-01T19:31:27.912Z,98598.00
2023-02-01T19:34:15.979Z,98606.00
2023-02-01T19:37:03.479Z,98602.00
2023-02-01T19:39:51.301Z,98619.00
2023-02-01T19:42:38.972Z,98609.00
2023-02-01T19:45:26.893Z,98620.00
2023-02-01T19:48:15.924Z,98624.00
2023-02-01T19:51:06.855Z,98625.00
2023-02-01T19:53:54.421Z,98630.00
2023-02-01T19:56:45.030Z,98625.00
2023-02-01T19:59:32.569Z,98630.00
2023-02-01T20:02:19.332Z,98626.00
2023-02-01T20:05:10.663Z,98629.00
2023-02-01T20:07:58.669Z,98616.00
2023-02-01T20:10:46.440Z,98625.00
2023-02-01T20:13:35.483Z,98601.00
2023-02-01T20:16:23.771Z,98606.00
2023-02-01T20:19:12.321Z,98602.00
2023-02-01T20:22:00.731Z,98596.00
2023-02-01T20:24:48.297Z,98603.00
2023-02-01T20:27:36.699Z,98616.00
2023-02-01T20:30:24.408Z,98611.00
2023-02-01T20:33:13.087Z,98603.00
2023-02-01T20:36:01.060Z,98604.00
2023-02-01T20:38:48.550Z,98596.00
2023-02-01T20:41:36.137Z,98589.00
2023-02-01T20:44:23.748Z,98589.00
2023-02-01T20:47:11.299Z,98590.00
2023-02-01T20:49:58.843Z,98582.00
2023-02-01T20:52:46.401Z,98573.00
2023-02-01T20:55:33.898Z,98576.00
2023-02-01T20:58:22.685Z,98574.00
2023-02-01T21:01:11.787Z,98570.00
2023-02-01T21:03:59.345Z,98565.00
2023-02-01T21:06:46.919Z,98572.00
2023-02-01T21:09:34.479Z,98560.00
2023-02-01T21:12:22.247Z,98561.00
2023-02-01T21:15:10.292Z,98571.00
2023-02-01T21:17:57.808Z,98555.00
2023-02-01T21:20:48.712Z,98563.00
2023-02-01T21:23:44.900Z,98539.00
2023-02-01T21:26:41.301Z,98554.00
2023-02-01T21:29:28.863Z,98567.00
2023-02-01T21:32:16.305Z,98558.00
2023-02-01T21:35:06.375Z,98554.00
2023-02-01T21:37:53.960Z,98556.00
2023-02-01T21:40:41.503Z,98540.00
2023-02-01T21:43:28.920Z,98552.00
2023-02-01T21:46:18.248Z,98552.00
2023-02-01T21:49:07.401Z,98552.00
2023-02-01T21:51:56.303Z,98548.00
2023-02-01T21:54:44.183Z,98553.00
2023-02-01T21:57:31.779Z,98561.00
2023-02-01T22:00:19.732Z,98560.00
2023-02-01T22:03:07.470Z,98564.00
2023-02-01T22:05:55.080Z,98576.00
2023-02-01T22:08:42.613Z,98574.00
2023-02-01T22:11:31.092Z,98564.00
2023-02-01T22:14:19.225Z,98544.00
2023-02-01T22:17:07.794Z,98542.00
2023-02-01T22:19:55.403Z,98573.00
2023-02-01T22:22:42.906Z,98580.00
2023-02-01T22:25:30.646Z,98557.00
2023-02-01T22:28:31.881Z,98543.00
2023-02-01T22:31:22.408Z,98518.00
2023-02-01T22:34:12.436Z,98523.00
2023-02-01T22:36:59.908Z,98527.00
2023-02-01T22:39:47.417Z,98520.00
2023-02-01T22:42:35.035Z,98516.00
2023-02-01T22:45:22.760Z,98502.00
2023-02-01T22:48:10.425Z,98498.00
2023-02-01T22:50:59.657Z,98505.00
2023-02-01T22:53:47.778Z,98506.00
2023-02-01T22:56:37.811Z,98508.00
2023-02-01T22:59:25.348Z,98506.00
2023-02-01T23:02:13.390Z,98521.00
2023-02-01T23:05:00.971Z,98506.00
2023-02-01T23:07:51.207Z,98506.00
2023-02-01T23:10:38.770Z,98519.00
2023-02-01T23:13:26.678Z,98514.00
2023-02-01T23:16:14.994Z,98507.00
2023-02-01T23:19:03.557Z,98509.00
2023-02-01T23:21:51.434Z,98520.00
2023-02-01T23:24:39.019Z,98495.00
2023-02-01T23:27:27.295Z,98530.00
2023-02-01T23:30:16.668Z,98530.00
2023-02-01T23:33:04.302Z,98506.00
2023-02-01T23:36:07.808Z,98509.00
2023-02-01T23:38:55.946Z,98523.00
2023-02-01T23:41:43.445Z,98509.00
2023-02-01T23:44:32.595Z,98494.00
2023-02-01T23:47:20.061Z,98504.00
2023-02-01T23:50:07.802Z,98490.00
2023-02-01T23:52:56.656Z,98477.00
2023-02-01T23:55:44.154Z,98486.00
2023-02-01T23:58:31.741Z,98493.00
